sensor_id;sensor_type;location;lat;lon;timestamp;P1;durP1;ratioP1;P2;durP2;ratioP2
13847;SDS011;6994;49.752;6.094;2023-11-21T00:02:17;3.72;;;2.65;;
13847;SDS011;6994;49.752;6.094;2023-11-21T00:04:45;3.33;;;2.80;;
13847;SDS011;6994;49.752;6.094;2023-11-21T00:07:12;4.57;;;2.97;;
13847;SDS011;6994;49.752;6.094;2023-11-21T00:09:40;1.85;;;1.73;;
13847;SDS011;6994;49.752;6.094;2023-11-21T00:12:07;2.15;;;1.95;;
13847;SDS011;6994;49.752;6.094;2023-11-21T00:14:34;2.62;;;1.92;;
13847;SDS011;6994;49.752;6.094;2023-11-21T00:17:02;2.97;;;2.17;;
13847;SDS011;6994;49.752;6.094;2023-11-21T00:19:30;2.78;;;2.55;;
13847;SDS011;6994;49.752;6.094;2023-11-21T00:21:58;2.85;;;2.15;;
13847;SDS011;6994;49.752;6.094;2023-11-21T00:24:25;2.62;;;1.80;;
13847;SDS011;6994;49.752;6.094;2023-11-21T00:26:52;1.73;;;1.62;;
13847;SDS011;6994;49.752;6.094;2023-11-21T00:29:20;1.95;;;1.75;;
13847;SDS011;6994;49.752;6.094;2023-11-21T00:31:47;2.25;;;2.00;;
13847;SDS011;6994;49.752;6.094;2023-11-21T00:34:15;2.10;;;1.90;;
13847;SDS011;6994;49.752;6.094;2023-11-21T00:36:42;1.95;;;1.80;;
13847;SDS011;6994;49.752;6.094;2023-11-21T00:39:09;1.95;;;1.85;;
13847;SDS011;6994;49.752;6.094;2023-11-21T00:41:36;2.03;;;1.83;;
13847;SDS011;6994;49.752;6.094;2023-11-21T00:44:04;2.67;;;1.77;;
13847;SDS011;6994;49.752;6.094;2023-11-21T00:46:31;1.40;;;1.30;;
13847;SDS011;6994;49.752;6.094;2023-11-21T00:48:59;2.20;;;2.00;;
13847;SDS011;6994;49.752;6.094;2023-11-21T00:51:27;1.83;;;1.73;;
13847;SDS011;6994;49.752;6.094;2023-11-21T00:53:54;1.62;;;1.52;;
13847;SDS011;6994;49.752;6.094;2023-11-21T00:56:21;1.27;;;1.17;;
13847;SDS011;6994;49.752;6.094;2023-11-21T00:58:49;1.40;;;1.30;;
13847;SDS011;6994;49.752;6.094;2023-11-21T01:01:16;1.60;;;1.50;;
13847;SDS011;6994;49.752;6.094;2023-11-21T01:03:45;1.90;;;1.55;;
13847;SDS011;6994;49.752;6.094;2023-11-21T01:06:11;1.50;;;1.40;;
13847;SDS011;6994;49.752;6.094;2023-11-21T01:08:38;1.80;;;1.70;;
13847;SDS011;6994;49.752;6.094;2023-11-21T01:11:05;2.20;;;2.00;;
13847;SDS011;6994;49.752;6.094;2023-11-21T01:13:32;1.75;;;1.65;;
13847;SDS011;6994;49.752;6.094;2023-11-21T01:15:59;2.95;;;1.50;;
13847;SDS011;6994;49.752;6.094;2023-11-21T01:18:27;1.55;;;1.45;;
13847;SDS011;6994;49.752;6.094;2023-11-21T01:20:54;1.42;;;1.33;;
13847;SDS011;6994;49.752;6.094;2023-11-21T01:23:21;2.78;;;1.67;;
13847;SDS011;6994;49.752;6.094;2023-11-21T01:25:48;1.85;;;1.67;;
13847;SDS011;6994;49.752;6.094;2023-11-21T01:28:15;2.20;;;2.00;;
13847;SDS011;6994;49.752;6.094;2023-11-21T01:30:43;2.28;;;2.08;;
13847;SDS011;6994;49.752;6.094;2023-11-21T01:33:10;2.42;;;1.90;;
13847;SDS011;6994;49.752;6.094;2023-11-21T01:35:37;2.92;;;1.87;;
13847;SDS011;6994;49.752;6.094;2023-11-21T01:38:04;2.33;;;2.12;;
13847;SDS011;6994;49.752;6.094;2023-11-21T01:40:31;2.50;;;2.30;;
13847;SDS011;6994;49.752;6.094;2023-11-21T01:42:59;4.12;;;2.12;;
13847;SDS011;6994;49.752;6.094;2023-11-21T01:45:26;1.85;;;1.75;;
13847;SDS011;6994;49.752;6.094;2023-11-21T01:47:53;2.50;;;2.30;;
13847;SDS011;6994;49.752;6.094;2023-11-21T01:50:20;1.85;;;1.58;;
13847;SDS011;6994;49.752;6.094;2023-11-21T01:52:47;2.58;;;2.20;;
13847;SDS011;6994;49.752;6.094;2023-11-21T01:55:15;2.12;;;1.90;;
13847;SDS011;6994;49.752;6.094;2023-11-21T01:57:42;2.22;;;1.83;;
13847;SDS011;6994;49.752;6.094;2023-11-21T02:00:09;1.65;;;1.55;;
13847;SDS011;6994;49.752;6.094;2023-11-21T02:02:43;3.62;;;2.22;;
13847;SDS011;6994;49.752;6.094;2023-11-21T02:05:13;3.80;;;2.05;;
13847;SDS011;6994;49.752;6.094;2023-11-21T02:07:43;2.47;;;2.20;;
13847;SDS011;6994;49.752;6.094;2023-11-21T02:10:10;1.85;;;1.75;;
13847;SDS011;6994;49.752;6.094;2023-11-21T02:12:37;1.90;;;1.80;;
13847;SDS011;6994;49.752;6.094;2023-11-21T02:15:05;1.70;;;1.60;;
13847;SDS011;6994;49.752;6.094;2023-11-21T02:17:32;2.25;;;1.58;;
13847;SDS011;6994;49.752;6.094;2023-11-21T02:19:59;1.85;;;1.73;;
13847;SDS011;6994;49.752;6.094;2023-11-21T02:22:30;2.05;;;1.40;;
13847;SDS011;6994;49.752;6.094;2023-11-21T02:24:53;1.65;;;1.50;;
13847;SDS011;6994;49.752;6.094;2023-11-21T02:27:20;2.92;;;1.85;;
13847;SDS011;6994;49.752;6.094;2023-11-21T02:29:48;2.95;;;1.90;;
13847;SDS011;6994;49.752;6.094;2023-11-21T02:32:15;1.80;;;1.52;;
13847;SDS011;6994;49.752;6.094;2023-11-21T02:34:42;2.15;;;1.35;;
13847;SDS011;6994;49.752;6.094;2023-11-21T02:37:09;2.12;;;1.80;;
13847;SDS011;6994;49.752;6.094;2023-11-21T02:39:36;2.87;;;2.15;;
13847;SDS011;6994;49.752;6.094;2023-11-21T02:42:04;1.90;;;1.67;;
13847;SDS011;6994;49.752;6.094;2023-11-21T02:44:31;2.40;;;2.20;;
13847;SDS011;6994;49.752;6.094;2023-11-21T02:46:58;2.95;;;2.22;;
13847;SDS011;6994;49.752;6.094;2023-11-21T02:49:25;2.72;;;2.53;;
13847;SDS011;6994;49.752;6.094;2023-11-21T02:51:55;2.58;;;2.37;;
13847;SDS011;6994;49.752;6.094;2023-11-21T02:54:22;2.92;;;2.65;;
13847;SDS011;6994;49.752;6.094;2023-11-21T02:56:50;3.20;;;2.40;;
13847;SDS011;6994;49.752;6.094;2023-11-21T02:59:17;3.85;;;3.10;;
13847;SDS011;6994;49.752;6.094;2023-11-21T03:01:44;3.00;;;2.37;;
13847;SDS011;6994;49.752;6.094;2023-11-21T03:04:11;3.60;;;3.30;;
13847;SDS011;6994;49.752;6.094;2023-11-21T03:06:38;4.32;;;3.92;;
13847;SDS011;6994;49.752;6.094;2023-11-21T03:09:06;3.55;;;3.05;;
13847;SDS011;6994;49.752;6.094;2023-11-21T03:11:33;3.87;;;3.58;;
13847;SDS011;6994;49.752;6.094;2023-11-21T03:14:00;4.22;;;3.45;;
13847;SDS011;6994;49.752;6.094;2023-11-21T03:16:27;3.83;;;3.50;;
13847;SDS011;6994;49.752;6.094;2023-11-21T03:18:54;3.28;;;2.92;;
13847;SDS011;6994;49.752;6.094;2023-11-21T03:21:22;3.55;;;3.22;;
13847;SDS011;6994;49.752;6.094;2023-11-21T03:23:49;3.40;;;2.65;;
13847;SDS011;6994;49.752;6.094;2023-11-21T03:26:16;2.42;;;2.22;;
13847;SDS011;6994;49.752;6.094;2023-11-21T03:28:43;2.58;;;2.37;;
13847;SDS011;6994;49.752;6.094;2023-11-21T03:31:10;4.20;;;2.25;;
13847;SDS011;6994;49.752;6.094;2023-11-21T03:33:38;5.03;;;3.20;;
13847;SDS011;6994;49.752;6.094;2023-11-21T03:36:05;3.15;;;2.65;;
13847;SDS011;6994;49.752;6.094;2023-11-21T03:38:32;3.03;;;2.75;;
13847;SDS011;6994;49.752;6.094;2023-11-21T03:40:59;2.40;;;2.20;;
13847;SDS011;6994;49.752;6.094;2023-11-21T03:43:26;2.65;;;2.45;;
13847;SDS011;6994;49.752;6.094;2023-11-21T03:45:54;3.58;;;3.25;;
13847;SDS011;6994;49.752;6.094;2023-11-21T03:48:21;5.37;;;3.08;;
13847;SDS011;6994;49.752;6.094;2023-11-21T03:50:48;2.78;;;2.45;;
13847;SDS011;6994;49.752;6.094;2023-11-21T03:53:15;4.80;;;3.20;;
13847;SDS011;6994;49.752;6.094;2023-11-21T03:55:42;4.70;;;3.00;;
13847;SDS011;6994;49.752;6.094;2023-11-21T03:58:10;3.92;;;2.67;;
13847;SDS011;6994;49.752;6.094;2023-11-21T04:00:37;3.20;;;2.90;;
13847;SDS011;6994;49.752;6.094;2023-11-21T04:03:04;2.92;;;2.60;;
13847;SDS011;6994;49.752;6.094;2023-11-21T04:05:31;3.25;;;2.80;;
13847;SDS011;6994;49.752;6.094;2023-11-21T04:07:58;2.00;;;1.70;;
13847;SDS011;6994;49.752;6.094;2023-11-21T04:10:26;2.72;;;1.70;;
13847;SDS011;6994;49.752;6.094;2023-11-21T04:12:53;1.77;;;1.67;;
13847;SDS011;6994;49.752;6.094;2023-11-21T04:15:20;2.78;;;2.55;;
13847;SDS011;6994;49.752;6.094;2023-11-21T04:17:47;2.15;;;1.95;;
13847;SDS011;6994;49.752;6.094;2023-11-21T04:20:14;2.55;;;2.35;;
13847;SDS011;6994;49.752;6.094;2023-11-21T04:22:43;2.83;;;2.33;;
13847;SDS011;6994;49.752;6.094;2023-11-21T04:25:09;3.05;;;2.53;;
13847;SDS011;6994;49.752;6.094;2023-11-21T04:27:36;2.12;;;1.77;;
13847;SDS011;6994;49.752;6.094;2023-11-21T04:30:03;3.80;;;2.45;;
13847;SDS011;6994;49.752;6.094;2023-11-21T04:32:30;2.22;;;2.03;;
13847;SDS011;6994;49.752;6.094;2023-11-21T04:34:58;2.15;;;1.98;;
13847;SDS011;6994;49.752;6.094;2023-11-21T04:37:25;3.12;;;2.30;;
13847;SDS011;6994;49.752;6.094;2023-11-21T04:39:52;2.42;;;2.20;;
13847;SDS011;6994;49.752;6.094;2023-11-21T04:42:19;2.17;;;1.98;;
13847;SDS011;6994;49.752;6.094;2023-11-21T04:44:46;3.90;;;1.87;;
13847;SDS011;6994;49.752;6.094;2023-11-21T04:47:14;1.92;;;1.73;;
13847;SDS011;6994;49.752;6.094;2023-11-21T04:49:44;1.95;;;1.85;;
13847;SDS011;6994;49.752;6.094;2023-11-21T04:52:11;2.20;;;1.90;;
13847;SDS011;6994;49.752;6.094;2023-11-21T04:54:38;2.47;;;1.80;;
13847;SDS011;6994;49.752;6.094;2023-11-21T04:57:05;2.10;;;1.90;;
13847;SDS011;6994;49.752;6.094;2023-11-21T04:59:33;2.42;;;2.00;;
13847;SDS011;6994;49.752;6.094;2023-11-21T05:02:00;4.00;;;2.45;;
13847;SDS011;6994;49.752;6.094;2023-11-21T05:04:27;3.33;;;2.50;;
13847;SDS011;6994;49.752;6.094;2023-11-21T05:06:54;3.42;;;2.62;;
13847;SDS011;6994;49.752;6.094;2023-11-21T05:09:21;2.33;;;1.95;;
13847;SDS011;6994;49.752;6.094;2023-11-21T05:11:48;3.12;;;1.95;;
13847;SDS011;6994;49.752;6.094;2023-11-21T05:14:16;4.18;;;2.92;;
13847;SDS011;6994;49.752;6.094;2023-11-21T05:16:43;3.03;;;2.62;;
13847;SDS011;6994;49.752;6.094;2023-11-21T05:19:10;8.15;;;2.65;;
13847;SDS011;6994;49.752;6.094;2023-11-21T05:21:37;2.50;;;2.20;;
13847;SDS011;6994;49.752;6.094;2023-11-21T05:24:04;3.42;;;2.90;;
13847;SDS011;6994;49.752;6.094;2023-11-21T05:26:32;3.67;;;2.75;;
13847;SDS011;6994;49.752;6.094;2023-11-21T05:28:59;3.22;;;2.55;;
13847;SDS011;6994;49.752;6.094;2023-11-21T05:31:26;4.18;;;3.37;;
13847;SDS011;6994;49.752;6.094;2023-11-21T05:33:53;4.07;;;3.08;;
13847;SDS011;6994;49.752;6.094;2023-11-21T05:36:20;5.93;;;3.30;;
13847;SDS011;6994;49.752;6.094;2023-11-21T05:38:48;2.85;;;2.40;;
13847;SDS011;6994;49.752;6.094;2023-11-21T05:41:15;5.10;;;3.12;;
13847;SDS011;6994;49.752;6.094;2023-11-21T05:43:42;4.03;;;3.10;;
13847;SDS011;6994;49.752;6.094;2023-11-21T05:46:09;3.87;;;3.10;;
13847;SDS011;6994;49.752;6.094;2023-11-21T05:48:36;3.95;;;3.50;;
13847;SDS011;6994;49.752;6.094;2023-11-21T05:51:04;6.03;;;3.30;;
13847;SDS011;6994;49.752;6.094;2023-11-21T05:53:31;7.70;;;3.65;;
13847;SDS011;6994;49.752;6.094;2023-11-21T05:55:58;6.25;;;4.65;;
13847;SDS011;6994;49.752;6.094;2023-11-21T05:58:25;7.15;;;4.37;;
13847;SDS011;6994;49.752;6.094;2023-11-21T06:00:52;4.45;;;3.95;;
13847;SDS011;6994;49.752;6.094;2023-11-21T06:03:20;5.75;;;3.58;;
13847;SDS011;6994;49.752;6.094;2023-11-21T06:05:47;5.53;;;4.37;;
13847;SDS011;6994;49.752;6.094;2023-11-21T06:08:14;5.43;;;4.47;;
13847;SDS011;6994;49.752;6.094;2023-11-21T06:10:41;5.32;;;4.07;;
13847;SDS011;6994;49.752;6.094;2023-11-21T06:13:09;4.78;;;3.67;;
13847;SDS011;6994;49.752;6.094;2023-11-21T06:15:36;4.57;;;4.00;;
13847;SDS011;6994;49.752;6.094;2023-11-21T06:18:03;6.00;;;5.40;;
13847;SDS011;6994;49.752;6.094;2023-11-21T06:20:30;5.03;;;4.03;;
13847;SDS011;6994;49.752;6.094;2023-11-21T06:22:57;5.35;;;3.78;;
13847;SDS011;6994;49.752;6.094;2023-11-21T06:25:25;7.65;;;4.07;;
13847;SDS011;6994;49.752;6.094;2023-11-21T06:27:52;7.28;;;3.83;;
13847;SDS011;6994;49.752;6.094;2023-11-21T06:30:19;6.22;;;5.62;;
13847;SDS011;6994;49.752;6.094;2023-11-21T06:32:46;5.30;;;4.12;;
13847;SDS011;6994;49.752;6.094;2023-11-21T06:35:13;6.75;;;5.30;;
13847;SDS011;6994;49.752;6.094;2023-11-21T06:37:41;4.75;;;4.25;;
13847;SDS011;6994;49.752;6.094;2023-11-21T06:40:08;5.45;;;4.50;;
13847;SDS011;6994;49.752;6.094;2023-11-21T06:42:35;5.07;;;4.22;;
13847;SDS011;6994;49.752;6.094;2023-11-21T06:45:02;6.45;;;5.45;;
13847;SDS011;6994;49.752;6.094;2023-11-21T06:47:29;7.55;;;4.40;;
13847;SDS011;6994;49.752;6.094;2023-11-21T06:49:57;6.20;;;5.60;;
13847;SDS011;6994;49.752;6.094;2023-11-21T06:52:24;5.95;;;4.40;;
13847;SDS011;6994;49.752;6.094;2023-11-21T06:54:51;7.10;;;5.82;;
13847;SDS011;6994;49.752;6.094;2023-11-21T06:57:18;6.30;;;4.55;;
13847;SDS011;6994;49.752;6.094;2023-11-21T06:59:45;6.68;;;4.35;;
13847;SDS011;6994;49.752;6.094;2023-11-21T07:02:13;6.62;;;4.60;;
13847;SDS011;6994;49.752;6.094;2023-11-21T07:04:40;6.05;;;4.97;;
13847;SDS011;6994;49.752;6.094;2023-11-21T07:07:07;4.60;;;4.15;;
13847;SDS011;6994;49.752;6.094;2023-11-21T07:09:34;4.57;;;3.75;;
13847;SDS011;6994;49.752;6.094;2023-11-21T07:12:01;6.82;;;3.83;;
13847;SDS011;6994;49.752;6.094;2023-11-21T07:14:29;4.55;;;3.30;;
13847;SDS011;6994;49.752;6.094;2023-11-21T07:16:56;6.53;;;3.78;;
13847;SDS011;6994;49.752;6.094;2023-11-21T07:19:24;6.78;;;5.12;;
13847;SDS011;6994;49.752;6.094;2023-11-21T07:21:52;5.12;;;4.50;;
13847;SDS011;6994;49.752;6.094;2023-11-21T07:24:19;8.07;;;6.25;;
13847;SDS011;6994;49.752;6.094;2023-11-21T07:26:46;6.12;;;4.93;;
13847;SDS011;6994;49.752;6.094;2023-11-21T07:29:13;8.10;;;5.03;;
13847;SDS011;6994;49.752;6.094;2023-11-21T07:31:40;8.13;;;5.05;;
13847;SDS011;6994;49.752;6.094;2023-11-21T07:34:08;7.03;;;4.62;;
13847;SDS011;6994;49.752;6.094;2023-11-21T07:36:36;5.95;;;4.65;;
13847;SDS011;6994;49.752;6.094;2023-11-21T07:39:04;6.07;;;4.85;;
13847;SDS011;6994;49.752;6.094;2023-11-21T07:41:32;5.82;;;5.15;;
13847;SDS011;6994;49.752;6.094;2023-11-21T07:43:59;6.15;;;4.57;;
13847;SDS011;6994;49.752;6.094;2023-11-21T07:46:27;8.30;;;5.03;;
13847;SDS011;6994;49.752;6.094;2023-11-21T07:48:54;5.95;;;5.00;;
13847;SDS011;6994;49.752;6.094;2023-11-21T07:51:21;7.60;;;4.60;;
13847;SDS011;6994;49.752;6.094;2023-11-21T07:53:48;6.45;;;5.20;;
13847;SDS011;6994;49.752;6.094;2023-11-21T07:56:16;5.00;;;4.50;;
13847;SDS011;6994;49.752;6.094;2023-11-21T07:58:43;6.00;;;4.95;;
13847;SDS011;6994;49.752;6.094;2023-11-21T08:01:10;10.07;;;5.45;;
13847;SDS011;6994;49.752;6.094;2023-11-21T08:03:37;5.10;;;4.50;;
13847;SDS011;6994;49.752;6.094;2023-11-21T08:06:04;5.93;;;4.80;;
13847;SDS011;6994;49.752;6.094;2023-11-21T08:08:32;6.03;;;4.87;;
13847;SDS011;6994;49.752;6.094;2023-11-21T08:10:59;6.25;;;4.97;;
13847;SDS011;6994;49.752;6.094;2023-11-21T08:13:26;6.57;;;4.85;;
13847;SDS011;6994;49.752;6.094;2023-11-21T08:15:57;4.97;;;4.28;;
13847;SDS011;6994;49.752;6.094;2023-11-21T08:18:23;8.55;;;4.78;;
13847;SDS011;6994;49.752;6.094;2023-11-21T08:20:50;8.80;;;4.93;;
13847;SDS011;6994;49.752;6.094;2023-11-21T08:23:18;5.62;;;4.93;;
13847;SDS011;6994;49.752;6.094;2023-11-21T08:25:45;8.18;;;5.00;;
13847;SDS011;6994;49.752;6.094;2023-11-21T08:28:12;6.25;;;5.50;;
13847;SDS011;6994;49.752;6.094;2023-11-21T08:30:39;7.70;;;4.97;;
13847;SDS011;6994;49.752;6.094;2023-11-21T08:33:06;6.82;;;4.93;;
13847;SDS011;6994;49.752;6.094;2023-11-21T08:35:34;9.40;;;5.37;;
13847;SDS011;6994;49.752;6.094;2023-11-21T08:38:01;6.60;;;4.47;;
13847;SDS011;6994;49.752;6.094;2023-11-21T08:40:28;7.37;;;4.95;;
13847;SDS011;6994;49.752;6.094;2023-11-21T08:42:55;5.10;;;4.15;;
13847;SDS011;6994;49.752;6.094;2023-11-21T08:45:22;6.62;;;4.50;;
13847;SDS011;6994;49.752;6.094;2023-11-21T08:47:50;6.43;;;4.65;;
13847;SDS011;6994;49.752;6.094;2023-11-21T08:50:18;8.68;;;4.18;;
13847;SDS011;6994;49.752;6.094;2023-11-21T08:52:46;6.03;;;4.50;;
13847;SDS011;6994;49.752;6.094;2023-11-21T08:55:13;5.65;;;4.35;;
13847;SDS011;6994;49.752;6.094;2023-11-21T08:57:40;7.15;;;4.57;;
13847;SDS011;6994;49.752;6.094;2023-11-21T09:00:07;7.37;;;5.72;;
13847;SDS011;6994;49.752;6.094;2023-11-21T09:02:37;8.55;;;5.00;;
13847;SDS011;6994;49.752;6.094;2023-11-21T09:05:05;6.85;;;4.72;;
13847;SDS011;6994;49.752;6.094;2023-11-21T09:07:32;6.80;;;4.53;;
13847;SDS011;6994;49.752;6.094;2023-11-21T09:09:59;5.25;;;4.57;;
13847;SDS011;6994;49.752;6.094;2023-11-21T09:12:27;4.87;;;4.30;;
13847;SDS011;6994;49.752;6.094;2023-11-21T09:14:54;8.82;;;5.28;;
13847;SDS011;6994;49.752;6.094;2023-11-21T09:17:21;5.90;;;4.93;;
13847;SDS011;6994;49.752;6.094;2023-11-21T09:19:48;10.60;;;5.37;;
13847;SDS011;6994;49.752;6.094;2023-11-21T09:22:16;9.13;;;5.25;;
13847;SDS011;6994;49.752;6.094;2023-11-21T09:24:43;6.60;;;4.95;;
13847;SDS011;6994;49.752;6.094;2023-11-21T09:27:10;6.57;;;5.90;;
13847;SDS011;6994;49.752;6.094;2023-11-21T09:29:37;8.45;;;5.15;;
13847;SDS011;6994;49.752;6.094;2023-11-21T09:32:05;6.18;;;4.55;;
13847;SDS011;6994;49.752;6.094;2023-11-21T09:34:33;5.78;;;4.78;;
13847;SDS011;6994;49.752;6.094;2023-11-21T09:37:05;9.20;;;4.50;;
13847;SDS011;6994;49.752;6.094;2023-11-21T09:39:32;5.82;;;4.37;;
13847;SDS011;6994;49.752;6.094;2023-11-21T09:42:10;6.18;;;4.25;;
13847;SDS011;6994;49.752;6.094;2023-11-21T09:44:45;7.07;;;4.68;;
13847;SDS011;6994;49.752;6.094;2023-11-21T09:46:59;6.35;;;5.45;;
13847;SDS011;6994;49.752;6.094;2023-11-21T09:49:27;9.30;;;4.45;;
13847;SDS011;6994;49.752;6.094;2023-11-21T09:51:55;6.93;;;4.18;;
13847;SDS011;6994;49.752;6.094;2023-11-21T09:54:23;6.72;;;4.47;;
13847;SDS011;6994;49.752;6.094;2023-11-21T09:56:50;4.72;;;3.72;;
13847;SDS011;6994;49.752;6.094;2023-11-21T09:59:17;5.70;;;3.67;;
13847;SDS011;6994;49.752;6.094;2023-11-21T10:01:45;6.03;;;4.20;;
13847;SDS011;6994;49.752;6.094;2023-11-21T10:04:13;6.20;;;3.72;;
13847;SDS011;6994;49.752;6.094;2023-11-21T10:06:40;4.62;;;3.55;;
13847;SDS011;6994;49.752;6.094;2023-11-21T10:09:10;5.00;;;3.72;;
13847;SDS011;6994;49.752;6.094;2023-11-21T10:11:41;5.93;;;4.18;;
13847;SDS011;6994;49.752;6.094;2023-11-21T10:14:10;7.07;;;4.85;;
13847;SDS011;6994;49.752;6.094;2023-11-21T10:16:38;4.62;;;3.83;;
13847;SDS011;6994;49.752;6.094;2023-11-21T10:19:05;4.70;;;3.35;;
13847;SDS011;6994;49.752;6.094;2023-11-21T10:21:34;4.45;;;3.50;;
13847;SDS011;6994;49.752;6.094;2023-11-21T10:24:01;5.40;;;3.40;;
13847;SDS011;6994;49.752;6.094;2023-11-21T10:26:29;4.15;;;3.47;;
13847;SDS011;6994;49.752;6.094;2023-11-21T10:28:57;9.20;;;4.53;;
13847;SDS011;6994;49.752;6.094;2023-11-21T10:31:27;5.32;;;4.22;;
13847;SDS011;6994;49.752;6.094;2023-11-21T10:33:53;5.30;;;4.53;;
13847;SDS011;6994;49.752;6.094;2023-11-21T10:36:27;5.47;;;3.65;;
13847;SDS011;6994;49.752;6.094;2023-11-21T10:38:54;5.30;;;4.20;;
13847;SDS011;6994;49.752;6.094;2023-11-21T10:41:21;5.93;;;4.12;;
13847;SDS011;6994;49.752;6.094;2023-11-21T10:43:48;4.95;;;4.45;;
13847;SDS011;6994;49.752;6.094;2023-11-21T10:46:15;8.27;;;4.57;;
13847;SDS011;6994;49.752;6.094;2023-11-21T10:48:42;4.40;;;4.00;;
13847;SDS011;6994;49.752;6.094;2023-11-21T10:51:10;5.35;;;4.10;;
13847;SDS011;6994;49.752;6.094;2023-11-21T10:53:38;4.97;;;3.72;;
13847;SDS011;6994;49.752;6.094;2023-11-21T10:56:08;6.20;;;4.18;;
13847;SDS011;6994;49.752;6.094;2023-11-21T10:58:34;4.93;;;3.22;;
13847;SDS011;6994;49.752;6.094;2023-11-21T11:01:01;7.25;;;3.70;;
13847;SDS011;6994;49.752;6.094;2023-11-21T11:03:29;8.00;;;3.75;;
13847;SDS011;6994;49.752;6.094;2023-11-21T11:05:56;5.25;;;3.35;;
13847;SDS011;6994;49.752;6.094;2023-11-21T11:08:23;6.37;;;4.30;;
13847;SDS011;6994;49.752;6.094;2023-11-21T11:10:50;6.93;;;4.87;;
13847;SDS011;6994;49.752;6.094;2023-11-21T11:13:18;6.00;;;3.95;;
13847;SDS011;6994;49.752;6.094;2023-11-21T11:15:47;5.57;;;4.25;;
13847;SDS011;6994;49.752;6.094;2023-11-21T11:18:15;4.90;;;3.40;;
13847;SDS011;6994;49.752;6.094;2023-11-21T11:20:42;5.47;;;3.58;;
13847;SDS011;6994;49.752;6.094;2023-11-21T11:23:17;3.90;;;3.50;;
13847;SDS011;6994;49.752;6.094;2023-11-21T11:26:05;5.45;;;2.78;;
13847;SDS011;6994;49.752;6.094;2023-11-21T11:31:27;5.93;;;3.05;;
13847;SDS011;6994;49.752;6.094;2023-11-21T11:34:23;3.85;;;2.87;;
13847;SDS011;6994;49.752;6.094;2023-11-21T11:36:54;6.55;;;2.83;;
13847;SDS011;6994;49.752;6.094;2023-11-21T11:39:26;4.53;;;2.83;;
13847;SDS011;6994;49.752;6.094;2023-11-21T11:41:53;4.32;;;2.60;;
13847;SDS011;6994;49.752;6.094;2023-11-21T11:47:14;5.40;;;3.33;;
13847;SDS011;6994;49.752;6.094;2023-11-21T11:52:49;7.78;;;2.58;;
13847;SDS011;6994;49.752;6.094;2023-11-21T11:55:16;3.92;;;2.40;;
13847;SDS011;6994;49.752;6.094;2023-11-21T11:57:43;8.23;;;3.00;;
13847;SDS011;6994;49.752;6.094;2023-11-21T12:02:53;3.00;;;2.17;;
13847;SDS011;6994;49.752;6.094;2023-11-21T12:05:32;5.20;;;2.33;;
13847;SDS011;6994;49.752;6.094;2023-11-21T12:08:07;4.45;;;2.60;;
13847;SDS011;6994;49.752;6.094;2023-11-21T12:10:35;4.95;;;3.10;;
13847;SDS011;6994;49.752;6.094;2023-11-21T12:13:02;2.92;;;2.10;;
13847;SDS011;6994;49.752;6.094;2023-11-21T12:15:31;1.92;;;1.58;;
13847;SDS011;6994;49.752;6.094;2023-11-21T12:17:59;4.18;;;2.20;;
13847;SDS011;6994;49.752;6.094;2023-11-21T12:20:27;5.32;;;3.60;;
13847;SDS011;6994;49.752;6.094;2023-11-21T12:22:57;3.03;;;2.70;;
13847;SDS011;6994;49.752;6.094;2023-11-21T12:25:24;5.53;;;2.80;;
13847;SDS011;6994;49.752;6.094;2023-11-21T12:27:54;4.30;;;2.35;;
13847;SDS011;6994;49.752;6.094;2023-11-21T12:30:22;5.55;;;3.60;;
13847;SDS011;6994;49.752;6.094;2023-11-21T12:32:49;4.85;;;3.10;;
13847;SDS011;6994;49.752;6.094;2023-11-21T12:35:15;3.28;;;2.28;;
13847;SDS011;6994;49.752;6.094;2023-11-21T12:37:42;3.40;;;2.15;;
13847;SDS011;6994;49.752;6.094;2023-11-21T12:40:09;3.92;;;3.17;;
13847;SDS011;6994;49.752;6.094;2023-11-21T12:42:39;4.00;;;3.27;;
13847;SDS011;6994;49.752;6.094;2023-11-21T12:45:10;5.82;;;5.05;;
13847;SDS011;6994;49.752;6.094;2023-11-21T12:47:37;5.87;;;3.97;;
13847;SDS011;6994;49.752;6.094;2023-11-21T12:50:02;3.83;;;2.92;;
13847;SDS011;6994;49.752;6.094;2023-11-21T12:52:28;3.78;;;2.80;;
13847;SDS011;6994;49.752;6.094;2023-11-21T12:54:55;4.32;;;2.70;;
13847;SDS011;6994;49.752;6.094;2023-11-21T12:57:25;3.80;;;2.60;;
13847;SDS011;6994;49.752;6.094;2023-11-21T12:59:52;3.90;;;2.97;;
13847;SDS011;6994;49.752;6.094;2023-11-21T13:02:19;8.63;;;3.65;;
13847;SDS011;6994;49.752;6.094;2023-11-21T13:04:51;3.35;;;2.35;;
13847;SDS011;6994;49.752;6.094;2023-11-21T13:07:14;6.07;;;2.75;;
13847;SDS011;6994;49.752;6.094;2023-11-21T13:09:41;4.50;;;2.62;;
13847;SDS011;6994;49.752;6.094;2023-11-21T13:12:08;2.78;;;2.47;;
13847;SDS011;6994;49.752;6.094;2023-11-21T13:14:35;4.10;;;2.70;;
13847;SDS011;6994;49.752;6.094;2023-11-21T13:17:03;3.95;;;2.12;;
13847;SDS011;6994;49.752;6.094;2023-11-21T13:19:31;4.55;;;3.00;;
13847;SDS011;6994;49.752;6.094;2023-11-21T13:21:59;3.40;;;2.12;;
13847;SDS011;6994;49.752;6.094;2023-11-21T13:24:27;5.97;;;3.30;;
13847;SDS011;6994;49.752;6.094;2023-11-21T13:26:54;4.55;;;2.78;;
13847;SDS011;6994;49.752;6.094;2023-11-21T13:29:21;5.62;;;3.45;;
13847;SDS011;6994;49.752;6.094;2023-11-21T13:31:48;3.58;;;2.83;;
13847;SDS011;6994;49.752;6.094;2023-11-21T13:34:15;5.12;;;3.25;;
13847;SDS011;6994;49.752;6.094;2023-11-21T13:36:43;3.97;;;2.83;;
13847;SDS011;6994;49.752;6.094;2023-11-21T13:39:10;7.25;;;2.90;;
13847;SDS011;6994;49.752;6.094;2023-11-21T13:41:37;7.85;;;2.70;;
13847;SDS011;6994;49.752;6.094;2023-11-21T13:44:04;3.47;;;2.85;;
13847;SDS011;6994;49.752;6.094;2023-11-21T13:46:47;6.03;;;2.53;;
13847;SDS011;6994;49.752;6.094;2023-11-21T13:49:14;3.58;;;2.60;;
13847;SDS011;6994;49.752;6.094;2023-11-21T13:51:41;3.28;;;2.78;;
13847;SDS011;6994;49.752;6.094;2023-11-21T13:54:08;5.78;;;2.75;;
13847;SDS011;6994;49.752;6.094;2023-11-21T13:56:36;4.37;;;3.15;;
13847;SDS011;6994;49.752;6.094;2023-11-21T13:59:03;7.75;;;3.40;;
13847;SDS011;6994;49.752;6.094;2023-11-21T14:01:42;6.65;;;4.12;;
13847;SDS011;6994;49.752;6.094;2023-11-21T14:04:09;2.00;;;1.90;;
13847;SDS011;6994;49.752;6.094;2023-11-21T14:06:51;5.62;;;2.55;;
13847;SDS011;6994;49.752;6.094;2023-11-21T14:09:19;4.68;;;2.62;;
13847;SDS011;6994;49.752;6.094;2023-11-21T14:11:51;5.00;;;3.20;;
13847;SDS011;6994;49.752;6.094;2023-11-21T14:14:19;3.45;;;2.17;;
13847;SDS011;6994;49.752;6.094;2023-11-21T14:16:45;3.80;;;2.53;;
13847;SDS011;6994;49.752;6.094;2023-11-21T14:19:13;5.20;;;2.60;;
13847;SDS011;6994;49.752;6.094;2023-11-21T14:21:40;3.75;;;2.20;;
13847;SDS011;6994;49.752;6.094;2023-11-21T14:24:07;4.28;;;2.55;;
13847;SDS011;6994;49.752;6.094;2023-11-21T14:26:34;3.10;;;2.33;;
13847;SDS011;6994;49.752;6.094;2023-11-21T14:29:01;4.05;;;2.58;;
13847;SDS011;6994;49.752;6.094;2023-11-21T14:31:29;5.35;;;2.50;;
13847;SDS011;6994;49.752;6.094;2023-11-21T14:33:56;4.37;;;2.55;;
13847;SDS011;6994;49.752;6.094;2023-11-21T14:36:23;3.50;;;2.30;;
13847;SDS011;6994;49.752;6.094;2023-11-21T14:38:50;5.03;;;3.30;;
13847;SDS011;6994;49.752;6.094;2023-11-21T14:41:17;7.00;;;3.55;;
13847;SDS011;6994;49.752;6.094;2023-11-21T14:43:45;6.35;;;2.72;;
13847;SDS011;6994;49.752;6.094;2023-11-21T14:46:12;7.28;;;3.47;;
13847;SDS011;6994;49.752;6.094;2023-11-21T14:48:39;4.43;;;2.53;;
13847;SDS011;6994;49.752;6.094;2023-11-21T14:51:06;3.00;;;2.70;;
13847;SDS011;6994;49.752;6.094;2023-11-21T14:53:48;3.20;;;2.35;;
13847;SDS011;6994;49.752;6.094;2023-11-21T14:56:22;6.15;;;2.58;;
13847;SDS011;6994;49.752;6.094;2023-11-21T14:58:55;6.43;;;3.42;;
13847;SDS011;6994;49.752;6.094;2023-11-21T15:01:19;5.37;;;3.92;;
13847;SDS011;6994;49.752;6.094;2023-11-21T15:03:46;8.77;;;4.35;;
13847;SDS011;6994;49.752;6.094;2023-11-21T15:06:13;6.50;;;4.12;;
13847;SDS011;6994;49.752;6.094;2023-11-21T15:08:54;4.45;;;3.55;;
13847;SDS011;6994;49.752;6.094;2023-11-21T15:11:24;5.40;;;3.75;;
13847;SDS011;6994;49.752;6.094;2023-11-21T15:13:51;5.35;;;4.22;;
13847;SDS011;6994;49.752;6.094;2023-11-21T15:16:18;9.88;;;6.78;;